createdAt,value
2022-09-09T00:02:37.694Z,16.17
2022-09-09T00:06:01.681Z,16.52
2022-09-09T00:09:20.985Z,16.23
2022-09-09T00:12:44.312Z,16.75
2022-09-09T00:16:21.069Z,16.65
2022-09-09T00:20:02.475Z,17.29
2022-09-09T00:23:21.572Z,17.63
2022-09-09T00:26:32.200Z,17.86
2022-09-09T00:29:44.606Z,17.55
2022-09-09T00:32:51.401Z,17.63
2022-09-09T00:36:04.983Z,17.78
2022-09-09T00:39:37.840Z,18.14
2022-09-09T00:42:47.897Z,17.69
2022-09-09T00:46:14.086Z,18.04
2022-09-09T00:49:47.675Z,18.43
2022-09-09T00:53:05.063Z,19.51
2022-09-09T00:56:22.562Z,21.84
2022-09-09T00:59:52.762Z,21.44
2022-09-09T01:03:26.253Z,22.21
2022-09-09T01:06:36.282Z,22.35
2022-09-09T01:10:01.088Z,22.83
2022-09-09T01:13:12.959Z,23.75
2022-09-09T01:16:19.705Z,24.07
2022-09-09T01:19:41.162Z,24.19
2022-09-09T01:23:00.570Z,24.20
2022-09-09T01:26:10.155Z,24.05
2022-09-09T01:29:19.168Z,23.96
2022-09-09T01:32:44.866Z,24.77
2022-09-09T01:36:16.739Z,24.22
2022-09-09T01:39:26.364Z,24.48
2022-09-09T01:42:51.769Z,24.96
2022-09-09T01:46:00.925Z,24.94
2022-09-09T01:49:09.024Z,24.46
2022-09-09T01:52:14.244Z,24.42
2022-09-09T01:55:21.901Z,24.60
2022-09-09T01:58:36.895Z,24.54
2022-09-09T02:01:45.058Z,24.46
2022-09-09T02:05:05.920Z,24.18
2022-09-09T02:08:34.651Z,23.76
2022-09-09T02:11:49.941Z,23.12
2022-09-09T02:15:26.108Z,22.40
2022-09-09T02:18:37.508Z,22.58
2022-09-09T02:21:46.258Z,22.88
2022-09-09T02:24:54.054Z,23.07
2022-09-09T02:28:03.094Z,22.86
2022-09-09T02:31:09.095Z,22.98
2022-09-09T02:34:23.226Z,22.66
2022-09-09T02:37:35.116Z,22.29
2022-09-09T02:40:40.262Z,22.37
2022-09-09T02:43:45.291Z,22.46
2022-09-09T02:47:14.757Z,22.18
2022-09-09T02:50:45.875Z,21.49
2022-09-09T02:54:23.170Z,21.75
2022-09-09T02:57:34.363Z,21.74
2022-09-09T03:00:42.506Z,21.22
2022-09-09T03:03:48.314Z,21.39
2022-09-09T03:06:54.939Z,21.48
2022-09-09T03:10:00.240Z,21.46
2022-09-09T03:13:07.473Z,20.75
2022-09-09T03:16:17.002Z,21.11
2022-09-09T03:19:26.402Z,20.71
2022-09-09T03:22:31.208Z,20.60
2022-09-09T03:25:37.809Z,20.96
2022-09-09T03:28:46.741Z,20.78
2022-09-09T03:31:55.390Z,20.42
2022-09-09T03:35:00.302Z,20.99
2022-09-09T03:38:07.043Z,20.94
2022-09-09T03:41:14.680Z,20.90
2022-09-09T03:44:20.795Z,20.81
2022-09-09T03:47:26.179Z,20.67
2022-09-09T03:50:35.925Z,20.62
2022-09-09T03:53:41.669Z,20.53
2022-09-09T03:56:47.592Z,20.81
2022-09-09T03:59:53.421Z,20.82
2022-09-09T04:02:59.659Z,20.47
2022-09-09T04:06:06.626Z,20.76
2022-09-09T04:09:11.283Z,20.60
2022-09-09T04:12:16.523Z,20.74
2022-09-09T04:15:21.314Z,20.89
2022-09-09T04:18:27.877Z,20.63
2022-09-09T04:21:33.131Z,20.72
2022-09-09T04:24:39.088Z,20.42
2022-09-09T04:27:44.851Z,20.65
2022-09-09T04:30:50.686Z,20.34
2022-09-09T04:33:56.065Z,20.70
2022-09-09T04:37:01.510Z,20.43
2022-09-09T04:40:07.871Z,20.28
2022-09-09T04:43:14.700Z,20.31
2022-09-09T04:46:21.632Z,20.04
2022-09-09T04:49:27.876Z,20.06
2022-09-09T04:52:33.611Z,20.36
2022-09-09T04:55:39.520Z,20.30
2022-09-09T04:58:45.364Z,20.25
2022-09-09T05:01:52.387Z,20.27
2022-09-09T05:04:58.944Z,20.38
2022-09-09T05:08:08.078Z,20.42
2022-09-09T05:11:23.710Z,20.64
2022-09-09T05:14:30.264Z,20.41
2022-09-09T05:17:35.783Z,20.39
2022-09-09T05:20:40.433Z,20.19
2022-09-09T05:23:47.764Z,20.30
2022-09-09T05:26:52.580Z,20.07
2022-09-09T05:29:58.898Z,20.38
2022-09-09T05:33:03.770Z,20.30
2022-09-09T05:36:11.010Z,20.30
2022-09-09T05:39:15.771Z,20.51
2022-09-09T05:42:20.750Z,20.34
2022-09-09T05:45:25.807Z,20.39
2022-09-09T05:48:32.365Z,20.22
2022-09-09T05:51:55.743Z,20.31
2022-09-09T05:55:01.654Z,20.46
2022-09-09T05:58:06.953Z,20.27
2022-09-09T06:01:17.781Z,20.42
2022-09-09T06:04:24.363Z,20.22
2022-09-09T06:07:29.569Z,20.46
2022-09-09T06:10:34.226Z,20.47
2022-09-09T06:13:41.231Z,19.97
2022-09-09T06:16:47.152Z,20.10
2022-09-09T06:19:57.774Z,20.10
2022-09-09T06:23:02.662Z,20.18
2022-09-09T06:26:20.084Z,20.12
2022-09-09T06:29:27.414Z,20.32
2022-09-09T06:32:32.393Z,20.04
2022-09-09T06:35:38.127Z,20.00
2022-09-09T06:38:46.457Z,20.36
2022-09-09T06:41:54.920Z,19.91
2022-09-09T06:45:17.972Z,20.45
2022-09-09T06:48:30.297Z,20.25
2022-09-09T06:51:38.199Z,20.18
2022-09-09T06:54:43.805Z,20.01
2022-09-09T06:57:48.537Z,19.89
2022-09-09T07:01:09.298Z,19.85
2022-09-09T07:04:15.989Z,19.52
2022-09-09T07:07:22.936Z,19.63
2022-09-09T07:10:28.182Z,19.72
2022-09-09T07:13:33.876Z,19.87
2022-09-09T07:16:41.595Z,19.74
2022-09-09T07:19:47.202Z,19.75
2022-09-09T07:22:58.156Z,19.89
2022-09-09T07:26:04.052Z,19.64
2022-09-09T07:29:10.055Z,19.78
2022-09-09T07:32:14.796Z,19.64
2022-09-09T07:35:19.615Z,19.42
2022-09-09T07:38:24.659Z,19.61
2022-09-09T07:41:36.891Z,19.49
2022-09-09T07:44:42.053Z,19.37
2022-09-09T07:47:52.642Z,19.37
2022-09-09T07:51:13.662Z,19.06
2022-09-09T07:54:25.424Z,19.37
2022-09-09T07:57:34.532Z,19.22
2022-09-09T08:00:41.928Z,19.09
2022-09-09T08:03:48.730Z,19.18
2022-09-09T08:06:58.103Z,19.16
2022-09-09T08:10:04.510Z,18.94
2022-09-09T08:13:18.277Z,18.79
2022-09-09T08:16:33.911Z,18.68
2022-09-09T08:19:38.912Z,18.37
2022-09-09T08:22:55.197Z,18.28
2022-09-09T08:26:07.213Z,18.27
2022-09-09T08:29:15.505Z,18.09
2022-09-09T08:32:23.915Z,18.12
2022-09-09T08:35:29.499Z,17.88
2022-09-09T08:38:35.575Z,17.93
2022-09-09T08:41:46.145Z,17.75
2022-09-09T08:45:22.530Z,17.74
2022-09-09T08:48:56.101Z,17.76
2022-09-09T08:52:03.253Z,17.53
2022-09-09T08:55:41.032Z,17.60
2022-09-09T08:58:51.286Z,17.41
2022-09-09T09:02:47.399Z,16.92
2022-09-09T09:06:24.678Z,17.11
2022-09-09T09:09:43.145Z,16.99
2022-09-09T09:12:49.399Z,16.73
2022-09-09T09:16:04.512Z,16.58
2022-09-09T09:19:17.443Z,16.37
2022-09-09T09:22:48.296Z,16.48
2022-09-09T09:26:01.240Z,16.35
2022-09-09T09:29:24.143Z,16.02
2022-09-09T09:32:35.980Z,15.81
2022-09-09T09:35:44.392Z,15.97
2022-09-09T09:42:27.701Z,16.08
2022-09-09T09:46:06.920Z,15.77
2022-09-09T09:49:12.748Z,15.63
2022-09-09T09:52:22.542Z,15.40
2022-09-09T09:55:28.939Z,15.22
2022-09-09T09:58:36.262Z,14.83
2022-09-09T10:01:41.009Z,14.81
2022-09-09T10:04:49.320Z,14.75
2022-09-09T10:08:30.235Z,14.61
2022-09-09T10:11:58.042Z,14.45
2022-09-09T10:15:08.527Z,14.59
2022-09-09T10:18:28.724Z,14.65
2022-09-09T10:21:51.635Z,14.55
2022-09-09T10:25:33.180Z,14.32
2022-09-09T10:28:54.888Z,13.59
2022-09-09T10:32:13.528Z,13.55
2022-09-09T10:35:29.657Z,13.77
2022-09-09T10:38:50.392Z,13.90
2022-09-09T10:42:11.666Z,14.08
2022-09-09T10:45:53.053Z,13.90
2022-09-09T10:49:22.835Z,13.67
2022-09-09T10:52:34.020Z,13.38
2022-09-09T10:55:43.945Z,13.27
2022-09-09T10:59:11.872Z,13.18
2022-09-09T11:02:24.353Z,13.25
2022-09-09T11:05:51.955Z,13.34
2022-09-09T11:08:58.032Z,12.87
2022-09-09T11:12:04.292Z,13.02
2022-09-09T11:15:20.631Z,12.93
2022-09-09T11:18:26.116Z,12.67
2022-09-09T11:21:34.000Z,12.74
2022-09-09T11:24:47.998Z,12.50
2022-09-09T11:28:01.683Z,12.50
2022-09-09T11:31:47.049Z,12.40
2022-09-09T11:34:58.855Z,12.31
2022-09-09T11:38:27.639Z,12.47
2022-09-09T11:41:39.460Z,12.42
2022-09-09T11:44:44.987Z,12.17
2022-09-09T11:48:02.017Z,12.26
2022-09-09T11:51:16.053Z,11.86
2022-09-09T11:54:47.296Z,12.08
2022-09-09T11:58:06.830Z,11.76
2022-09-09T12:01:31.872Z,11.75
2022-09-09T12:05:10.673Z,11.94
2022-09-09T12:08:24.378Z,12.10
2022-09-09T12:11:53.581Z,11.94
2022-09-09T12:15:01.160Z,11.78
2022-09-09T12:18:17.071Z,11.25
2022-09-09T12:21:37.769Z,11.75
2022-09-09T12:25:08.797Z,11.47
2022-09-09T12:28:43.692Z,10.56
2022-09-09T12:32:07.370Z,11.69
2022-09-09T12:35:28.493Z,11.71
2022-09-09T12:38:38.656Z,11.64
2022-09-09T12:41:43.585Z,10.79
2022-09-09T12:45:00.670Z,11.27
2022-09-09T12:48:17.547Z,10.86
2022-09-09T12:51:33.999Z,10.99
2022-09-09T12:54:39.974Z,10.84
2022-09-09T12:57:45.796Z,11.08
2022-09-09T13:00:59.363Z,11.18
2022-09-09T13:04:04.911Z,10.59
2022-09-09T13:07:12.053Z,11.38
2022-09-09T13:10:36.172Z,11.54
2022-09-09T13:13:43.892Z,11.08
2022-09-09T13:17:05.424Z,10.63
2022-09-09T13:20:20.869Z,10.99
2022-09-09T13:23:30.280Z,11.25
2022-09-09T13:26:36.451Z,11.17
2022-09-09T13:29:42.903Z,11.13
2022-09-09T13:32:48.112Z,10.74
2022-09-09T13:36:08.355Z,10.89
2022-09-09T13:39:22.373Z,9.87
2022-09-09T13:42:33.343Z,10.80
2022-09-09T13:45:41.224Z,11.02
2022-09-09T13:48:59.300Z,10.17
2022-09-09T13:52:12.473Z,10.90
2022-09-09T13:55:17.658Z,11.08
2022-09-09T13:58:23.497Z,10.36
2022-09-09T14:01:29.802Z,10.35
2022-09-09T14:04:37.037Z,10.84
2022-09-09T14:07:43.748Z,10.01
2022-09-09T14:10:48.469Z,10.58
2022-09-09T14:13:53.414Z,9.95
2022-09-09T14:16:58.162Z,9.91
2022-09-09T14:20:03.399Z,10.02
2022-09-09T14:23:08.545Z,10.37
2022-09-09T14:26:13.283Z,10.14
2022-09-09T14:29:18.694Z,10.44
2022-09-09T14:32:23.935Z,10.57
2022-09-09T14:35:28.915Z,9.50
2022-09-09T14:38:44.704Z,9.67
2022-09-09T14:41:49.733Z,9.67
2022-09-09T14:44:54.853Z,10.10
2022-09-09T14:48:01.578Z,10.06
2022-09-09T14:51:12.111Z,9.43
2022-09-09T14:54:17.259Z,9.63
2022-09-09T14:57:22.119Z,10.21
2022-09-09T15:00:27.180Z,10.18
2022-09-09T15:03:32.132Z,9.67
2022-09-09T15:06:41.900Z,10.33
2022-09-09T15:09:46.746Z,10.13
2022-09-09T15:12:51.478Z,10.01
2022-09-09T15:15:56.508Z,9.92
2022-09-09T15:19:03.577Z,9.37
2022-09-09T15:22:09.286Z,9.90
2022-09-09T15:25:14.393Z,9.99
2022-09-09T15:28:19.813Z,9.68
2022-09-09T15:31:26.263Z,9.27
2022-09-09T15:34:31.015Z,9.63
2022-09-09T15:37:35.756Z,9.62
2022-09-09T15:40:40.547Z,9.08
2022-09-09T15:43:47.919Z,9.85
2022-09-09T15:46:55.669Z,9.68
2022-09-09T15:50:00.700Z,9.28
2022-09-09T15:53:07.978Z,9.36
2022-09-09T15:56:12.964Z,9.27
2022-09-09T15:59:17.985Z,9.47
2022-09-09T16:02:23.724Z,9.79
2022-09-09T16:05:28.665Z,9.78
2022-09-09T16:08:38.425Z,9.62
2022-09-09T16:11:43.125Z,9.14
2022-09-09T16:14:47.871Z,9.24
2022-09-09T16:17:55.530Z,9.00
2022-09-09T16:21:00.325Z,9.15
2022-09-09T16:24:06.464Z,9.03
2022-09-09T16:27:11.457Z,9.06
2022-09-09T16:30:16.476Z,9.33
2022-09-09T16:33:20.960Z,9.20
2022-09-09T16:36:28.007Z,9.31
2022-09-09T16:39:33.000Z,9.18
2022-09-09T16:42:39.648Z,8.82
2022-09-09T16:45:46.447Z,9.03
2022-09-09T16:48:51.784Z,9.15
2022-09-09T16:51:59.492Z,8.99
2022-09-09T16:55:04.456Z,9.09
2022-09-09T16:58:10.722Z,9.07
2022-09-09T17:01:16.279Z,8.87
2022-09-09T17:04:25.445Z,8.66
2022-09-09T17:07:30.249Z,9.03
2022-09-09T17:10:34.624Z,8.86
2022-09-09T17:13:43.574Z,9.00
2022-09-09T17:16:51.826Z,9.25
2022-09-09T17:19:56.929Z,8.80
2022-09-09T17:23:01.580Z,8.98
2022-09-09T17:26:11.423Z,8.69
2022-09-09T17:29:16.472Z,9.16
2022-09-09T17:32:21.128Z,8.93
2022-09-09T17:35:25.808Z,8.93
2022-09-09T17:38:31.477Z,8.77
2022-09-09T17:41:38.312Z,8.43
2022-09-09T17:44:43.872Z,8.84
2022-09-09T17:47:49.637Z,8.78
2022-09-09T17:51:00.696Z,8.45
2022-09-09T17:54:11.519Z,8.23
2022-09-09T17:57:17.288Z,8.39
2022-09-09T18:00:21.509Z,8.52
2022-09-09T18:03:26.663Z,8.11
2022-09-09T18:06:37.241Z,8.46
2022-09-09T18:09:43.508Z,8.53
2022-09-09T18:12:48.078Z,8.37
2022-09-09T18:15:53.098Z,8.59
2022-09-09T18:19:00.219Z,8.60
2022-09-09T18:22:08.452Z,8.65
2022-09-09T18:25:12.915Z,8.48
2022-09-09T18:28:17.370Z,8.03
2022-09-09T18:31:24.823Z,8.18
2022-09-09T18:34:31.072Z,7.97
2022-09-09T18:37:37.038Z,7.91
2022-09-09T18:40:41.773Z,8.21
2022-09-09T18:43:46.906Z,8.23
2022-09-09T18:46:53.366Z,8.26
2022-09-09T18:49:57.981Z,8.19
2022-09-09T18:53:02.844Z,8.10
2022-09-09T18:56:09.978Z,7.99
2022-09-09T18:59:19.997Z,8.08
2022-09-09T19:02:24.799Z,8.06
2022-09-09T19:05:29.542Z,8.24
2022-09-09T19:08:38.973Z,8.18
2022-09-09T19:11:44.404Z,8.45
2022-09-09T19:14:49.396Z,8.43
2022-09-09T19:17:54.045Z,8.15
2022-09-09T19:20:58.875Z,8.02
2022-09-09T19:24:09.872Z,8.31
2022-09-09T19:27:14.565Z,7.92
2022-09-09T19:30:19.187Z,8.18
2022-09-09T19:33:24.022Z,8.09
2022-09-09T19:36:28.845Z,8.02
2022-09-09T19:39:35.264Z,7.97
2022-09-09T19:42:41.632Z,7.94
2022-09-09T19:45:46.305Z,7.62
2022-09-09T19:48:51.019Z,7.93
2022-09-09T19:51:56.762Z,8.11
2022-09-09T19:55:02.202Z,8.00
2022-09-09T19:58:08.496Z,8.00
2022-09-09T20:01:17.833Z,8.40
2022-09-09T20:04:23.176Z,8.14
2022-09-09T20:07:27.915Z,8.13
2022-09-09T20:10:32.824Z,8.20
2022-09-09T20:13:42.796Z,8.15
2022-09-09T20:16:47.816Z,8.23
2022-09-09T20:19:52.627Z,8.04
2022-09-09T20:22:58.451Z,8.26
2022-09-09T20:26:14.294Z,8.33
2022-09-09T20:29:20.913Z,8.62
2022-09-09T20:32:25.601Z,8.42
2022-09-09T20:35:30.220Z,8.39
2022-09-09T20:38:35.284Z,8.45
2022-09-09T20:41:41.435Z,8.27
2022-09-09T20:44:46.081Z,8.36
2022-09-09T20:47:51.382Z,8.42
2022-09-09T20:50:56.432Z,8.57
2022-09-09T20:54:04.738Z,8.65
2022-09-09T20:57:09.625Z,8.62
2022-09-09T21:00:15.765Z,8.41
2022-09-09T21:03:20.318Z,8.66
2022-09-09T21:06:24.969Z,8.71
2022-09-09T21:09:29.779Z,9.35
2022-09-09T21:12:34.497Z,9.96
2022-09-09T21:15:39.050Z,10.26
2022-09-09T21:18:45.306Z,10.15
2022-09-09T21:21:50.035Z,10.52
2022-09-09T21:24:55.333Z,10.57
2022-09-09T21:28:00.059Z,11.10
2022-09-09T21:31:06.513Z,11.34
2022-09-09T21:34:11.267Z,11.76
2022-09-09T21:37:15.852Z,11.79
2022-09-09T21:40:21.813Z,12.10
2022-09-09T21:43:26.464Z,13.16
2022-09-09T21:46:32.333Z,14.21
2022-09-09T21:49:37.357Z,14.63
2022-09-09T21:52:42.249Z,15.02
2022-09-09T21:55:48.602Z,16.18
2022-09-09T21:58:58.921Z,16.53
2022-09-09T22:02:03.852Z,17.19
2022-09-09T22:05:08.684Z,17.45
2022-09-09T22:08:15.303Z,17.82
2022-09-09T22:11:23.242Z,18.00
2022-09-09T22:14:28.507Z,17.49
2022-09-09T22:17:33.552Z,16.51
2022-09-09T22:20:44.835Z,16.14
2022-09-09T22:23:54.698Z,15.61
2022-09-09T22:26:59.477Z,14.79
2022-09-09T22:30:04.476Z,14.86
2022-09-09T22:33:10.518Z,14.24
2022-09-09T22:36:15.762Z,14.50
2022-09-09T22:39:20.481Z,14.27
2022-09-09T22:42:25.184Z,14.38
2022-09-09T22:45:29.611Z,13.96
2022-09-09T22:48:35.630Z,14.21
2022-09-09T22:51:40.779Z,13.81
2022-09-09T22:54:46.953Z,14.09
2022-09-09T22:57:51.738Z,13.97
2022-09-09T23:01:00.241Z,13.94
2022-09-09T23:04:05.481Z,13.86
2022-09-09T23:07:10.437Z,14.02
2022-09-09T23:10:17.023Z,14.16
2022-09-09T23:13:21.678Z,13.92
2022-09-09T23:16:38.307Z,14.20
2022-09-09T23:19:44.500Z,14.13
2022-09-09T23:22:49.331Z,14.02
2022-09-09T23:25:54.106Z,15.08
2022-09-09T23:29:03.305Z,15.22
2022-09-09T23:32:08.254Z,15.68
2022-09-09T23:35:12.901Z,15.41
2022-09-09T23:38:17.765Z,15.03
2022-09-09T23:41:22.519Z,14.86
2022-09-09T23:44:27.540Z,14.95
2022-09-09T23:47:32.044Z,14.65
2022-09-09T23:50:36.628Z,14.66
2022-09-09T23:53:41.887Z,15.10
2022-09-09T23:56:46.980Z,14.84
2022-09-09T23:59:51.652Z,15.00
